createdAt,value
2017-07-01T00:01:45.276Z,22.60
2017-07-01T00:04:13.470Z,19.73
2017-07-01T00:06:41.713Z,19.83
2017-07-01T00:09:09.880Z,18.58
2017-07-01T00:11:38.067Z,22.33
2017-07-01T00:14:06.300Z,20.52
2017-07-01T00:16:35.240Z,19.27
2017-07-01T00:19:03.411Z,17.75
2017-07-01T00:21:31.634Z,18.37
2017-07-01T00:24:00.607Z,15.15
2017-07-01T00:26:28.827Z,17.70
2017-07-01T00:28:57.048Z,17.02
2017-07-01T00:31:25.273Z,17.05
2017-07-01T00:33:53.461Z,17.75
2017-07-01T00:36:21.682Z,18.50
2017-07-01T00:38:49.862Z,16.60
2017-07-01T00:41:18.062Z,18.10
2017-07-01T00:43:47.056Z,18.45
2017-07-01T00:46:15.993Z,18.42
2017-07-01T00:48:44.193Z,19.58
2017-07-01T00:51:12.411Z,19.60
2017-07-01T00:53:40.727Z,19.08
2017-07-01T00:56:08.923Z,20.58
2017-07-01T00:58:37.133Z,20.48
2017-07-01T01:01:06.081Z,19.15
2017-07-01T01:03:34.245Z,21.60
2017-07-01T01:06:02.449Z,26.42
2017-07-01T01:08:30.620Z,23.58
2017-07-01T01:10:58.825Z,22.35
2017-07-01T01:13:27.833Z,23.95
2017-07-01T01:15:56.040Z,22.67
2017-07-01T01:18:24.248Z,22.98
2017-07-01T01:20:52.459Z,23.50
2017-07-01T01:23:20.630Z,24.87
2017-07-01T01:25:48.815Z,23.90
2017-07-01T01:28:17.050Z,24.30
2017-07-01T01:33:23.366Z,25.50
2017-07-01T01:35:51.560Z,24.10
2017-07-01T01:38:19.751Z,25.40
2017-07-01T01:40:47.995Z,27.48
2017-07-01T01:43:16.208Z,26.83
2017-07-01T01:45:44.417Z,28.30
2017-07-01T01:48:13.435Z,25.05
2017-07-01T01:50:41.644Z,25.70
2017-07-01T01:53:09.838Z,23.75
2017-07-01T01:55:38.076Z,27.50
2017-07-01T01:58:06.275Z,29.33
2017-07-01T02:00:34.483Z,23.33
2017-07-01T02:03:02.698Z,24.27
2017-07-01T02:05:30.883Z,24.40
2017-07-01T02:07:59.054Z,24.30
2017-07-01T02:10:27.281Z,24.83
2017-07-01T02:12:55.495Z,23.20
2017-07-01T02:15:23.702Z,24.42
2017-07-01T02:18:21.442Z,22.15
2017-07-01T02:20:58.700Z,23.15
2017-07-01T02:23:27.691Z,22.30
2017-07-01T02:26:17.069Z,22.17
2017-07-01T02:28:55.752Z,21.62
2017-07-01T02:31:23.913Z,22.20
2017-07-01T02:34:09.826Z,24.25
2017-07-01T02:36:39.875Z,20.48
2017-07-01T02:39:08.815Z,20.10
2017-07-01T02:41:37.017Z,20.15
2017-07-01T02:44:05.189Z,21.77
2017-07-01T02:46:49.834Z,21.35
2017-07-01T02:49:20.665Z,20.25
2017-07-01T02:52:09.259Z,21.25
2017-07-01T02:55:04.741Z,19.75
2017-07-01T02:57:32.983Z,23.20
2017-07-01T03:00:01.209Z,22.10
2017-07-01T03:02:39.328Z,24.37
2017-07-01T03:05:08.235Z,24.40
2017-07-01T03:07:37.201Z,24.77
2017-07-01T03:10:05.405Z,24.58
2017-07-01T03:12:34.370Z,28.60
2017-07-01T03:15:02.572Z,23.80
2017-07-01T03:17:42.285Z,27.90
2017-07-01T03:20:10.477Z,24.92
2017-07-01T03:22:38.683Z,29.45
2017-07-01T03:25:06.885Z,23.42
2017-07-01T03:27:35.080Z,22.27
2017-07-01T03:30:10.693Z,21.83
2017-07-01T03:32:38.885Z,20.35
2017-07-01T03:35:07.139Z,21.17
2017-07-01T03:38:01.958Z,20.23
2017-07-01T03:40:54.786Z,21.02
2017-07-01T03:43:45.256Z,18.42
2017-07-01T03:46:28.494Z,16.23
2017-07-01T03:49:00.049Z,16.62
2017-07-01T03:51:29.028Z,15.70
2017-07-01T03:53:57.991Z,17.33
2017-07-01T03:56:26.594Z,16.55
2017-07-01T03:58:54.772Z,18.42
2017-07-01T04:01:22.952Z,17.98
2017-07-01T04:03:51.153Z,14.52
2017-07-01T04:06:19.356Z,17.85
2017-07-01T04:08:47.647Z,13.07
2017-07-01T04:11:15.852Z,13.52
2017-07-01T04:13:44.021Z,13.38
2017-07-01T04:16:12.248Z,15.00
2017-07-01T04:18:45.154Z,13.05
2017-07-01T04:21:13.371Z,12.07
2017-07-01T04:23:42.338Z,12.23
2017-07-01T04:26:10.583Z,11.25
2017-07-01T04:28:38.877Z,14.73
2017-07-01T04:31:07.073Z,11.27
2017-07-01T04:33:35.287Z,12.45
2017-07-01T04:36:03.483Z,11.35
2017-07-01T04:38:38.378Z,11.60
2017-07-01T04:41:07.345Z,11.70
2017-07-01T04:43:42.385Z,11.95
2017-07-01T04:46:11.273Z,10.70
2017-07-01T04:49:02.850Z,12.45
2017-07-01T04:51:58.585Z,10.70
2017-07-01T04:54:42.436Z,11.20
2017-07-01T04:57:26.344Z,10.00
2017-07-01T05:00:19.943Z,12.85
2017-07-01T05:02:48.141Z,10.90
2017-07-01T05:05:17.105Z,9.10
2017-07-01T05:08:03.710Z,10.67
2017-07-01T05:10:58.493Z,12.60
2017-07-01T05:13:26.698Z,10.73
2017-07-01T05:15:59.500Z,11.75
2017-07-01T05:18:28.495Z,10.20
2017-07-01T05:20:59.386Z,11.90
2017-07-01T05:23:31.232Z,11.00
2017-07-01T05:26:05.842Z,10.20
2017-07-01T05:28:39.405Z,9.45
2017-07-01T05:31:26.914Z,10.48
2017-07-01T05:34:22.834Z,10.70
2017-07-01T05:36:51.050Z,10.68
2017-07-01T05:39:24.434Z,10.52
2017-07-01T05:45:30.822Z,10.57
2017-07-01T05:47:59.004Z,10.25
2017-07-01T05:50:27.384Z,10.27
2017-07-01T05:52:56.406Z,16.05
2017-07-01T05:55:24.607Z,11.30
2017-07-01T05:57:52.796Z,11.65
2017-07-01T06:00:30.732Z,9.75
2017-07-01T06:02:59.692Z,11.07
2017-07-01T06:05:27.903Z,11.00
2017-07-01T06:07:56.883Z,11.07
2017-07-01T06:10:34.475Z,11.00
2017-07-01T06:13:02.695Z,12.07
2017-07-01T06:15:55.224Z,12.13
2017-07-01T06:18:43.073Z,10.98
2017-07-01T06:21:45.839Z,11.12
2017-07-01T06:24:36.570Z,13.48
2017-07-01T06:27:37.229Z,11.40
2017-07-01T06:30:21.796Z,12.95
2017-07-01T06:33:10.489Z,15.95
2017-07-01T06:35:46.274Z,18.17
2017-07-01T06:38:47.003Z,15.15
2017-07-01T06:41:25.732Z,11.68
2017-07-01T06:44:19.452Z,11.30
2017-07-01T06:47:01.330Z,12.20
2017-07-01T06:49:54.323Z,12.50
2017-07-01T06:52:26.027Z,11.82
2017-07-01T06:54:54.224Z,11.88
2017-07-01T06:57:22.424Z,14.15
2017-07-01T06:59:50.677Z,12.70
2017-07-01T07:02:18.932Z,12.15
2017-07-01T07:04:47.388Z,11.40
2017-07-01T07:07:15.713Z,13.60
2017-07-01T07:09:43.894Z,11.05
2017-07-01T07:12:12.086Z,11.57
2017-07-01T07:14:40.300Z,10.98
2017-07-01T07:17:08.541Z,12.00
2017-07-01T07:19:36.731Z,11.50
2017-07-01T07:22:05.772Z,12.30
2017-07-01T07:24:34.105Z,10.73
2017-07-01T07:27:02.370Z,10.80
2017-07-01T07:29:30.634Z,10.98
2017-07-01T07:31:58.828Z,10.10
2017-07-01T07:34:27.837Z,10.93
2017-07-01T07:36:56.824Z,10.57
2017-07-01T07:39:25.780Z,10.20
2017-07-01T07:41:54.006Z,9.95
2017-07-01T07:44:22.237Z,10.00
2017-07-01T07:46:50.469Z,11.20
2017-07-01T07:49:18.668Z,10.77
2017-07-01T07:51:46.888Z,11.43
2017-07-01T07:54:15.858Z,9.95
2017-07-01T07:56:44.065Z,11.75
2017-07-01T07:59:12.283Z,10.85
2017-07-01T08:01:40.461Z,10.63
2017-07-01T08:04:08.699Z,10.38
2017-07-01T08:06:36.909Z,10.25
2017-07-01T08:09:05.089Z,11.48
2017-07-01T08:11:33.347Z,10.13
2017-07-01T08:14:01.591Z,10.68
2017-07-01T08:16:30.612Z,11.45
2017-07-01T08:18:58.803Z,10.07
2017-07-01T08:21:27.043Z,9.95
2017-07-01T08:23:55.261Z,10.30
2017-07-01T08:26:23.452Z,10.50
2017-07-01T08:28:51.694Z,11.20
2017-07-01T08:31:19.962Z,9.68
2017-07-01T08:33:48.172Z,11.18
2017-07-01T08:36:16.404Z,11.05
2017-07-01T08:38:44.595Z,10.65
2017-07-01T08:41:13.011Z,9.75
2017-07-01T08:43:41.257Z,10.05
2017-07-01T08:46:09.455Z,10.70
2017-07-01T08:48:37.643Z,9.85
2017-07-01T08:51:05.873Z,9.82
2017-07-01T08:53:34.082Z,9.57
2017-07-01T08:56:02.358Z,9.73
2017-07-01T08:58:30.565Z,10.37
2017-07-01T09:00:58.747Z,10.00
2017-07-01T09:03:26.925Z,9.55
2017-07-01T09:05:55.989Z,13.43
2017-07-01T09:08:24.193Z,10.85
2017-07-01T09:10:53.138Z,9.93
2017-07-01T09:13:21.432Z,11.63
2017-07-01T09:15:49.615Z,9.07
2017-07-01T09:18:17.796Z,16.52
2017-07-01T09:20:46.007Z,32.05
2017-07-01T09:23:14.191Z,9.88
2017-07-01T09:25:42.379Z,9.48
2017-07-01T09:28:10.607Z,7.72
2017-07-01T09:30:39.578Z,7.57
2017-07-01T09:33:07.785Z,7.78
2017-07-01T09:35:36.768Z,6.90
2017-07-01T09:38:05.717Z,7.70
2017-07-01T09:40:33.904Z,7.65
2017-07-01T09:43:02.176Z,7.90
2017-07-01T09:45:30.367Z,8.15
2017-07-01T09:47:58.570Z,9.13
2017-07-01T09:50:27.584Z,6.87
2017-07-01T09:52:55.757Z,4.18
2017-07-01T09:55:23.928Z,4.90
2017-07-01T09:57:53.003Z,5.22
2017-07-01T10:00:21.975Z,5.47
2017-07-01T10:02:50.159Z,4.57
2017-07-01T10:05:18.372Z,3.08
2017-07-01T10:07:46.580Z,2.53
2017-07-01T10:10:14.771Z,3.10
2017-07-01T10:12:42.983Z,2.30
2017-07-01T10:15:11.955Z,2.28
2017-07-01T10:17:40.167Z,2.37
2017-07-01T10:20:08.392Z,3.05
2017-07-01T10:22:36.576Z,2.33
2017-07-01T10:25:04.744Z,1.90
2017-07-01T10:27:32.940Z,2.10
2017-07-01T10:30:01.125Z,2.12
2017-07-01T10:32:30.064Z,2.15
2017-07-01T10:34:58.287Z,2.10
2017-07-01T10:37:27.265Z,2.75
2017-07-01T10:39:55.467Z,1.83
2017-07-01T10:42:24.450Z,1.60
2017-07-01T10:44:53.410Z,2.58
2017-07-01T10:47:21.616Z,2.08
2017-07-01T10:49:49.859Z,2.65
2017-07-01T10:52:18.041Z,3.47
2017-07-01T10:54:46.205Z,2.35
2017-07-01T10:57:15.179Z,2.17
2017-07-01T10:59:43.384Z,1.90
2017-07-01T11:02:11.591Z,2.35
2017-07-01T11:04:39.858Z,3.00
2017-07-01T11:07:08.073Z,2.00
2017-07-01T11:09:36.281Z,2.00
2017-07-01T11:12:04.483Z,2.20
2017-07-01T11:14:32.687Z,1.98
2017-07-01T11:17:00.883Z,2.37
2017-07-01T11:19:29.867Z,2.70
2017-07-01T11:21:58.155Z,2.78
2017-07-01T11:24:26.373Z,3.20
2017-07-01T11:26:54.596Z,4.00
2017-07-01T11:29:22.797Z,5.60
2017-07-01T11:31:51.003Z,3.90
2017-07-01T11:34:19.236Z,4.12
2017-07-01T11:36:47.427Z,4.47
2017-07-01T11:39:15.616Z,7.20
2017-07-01T11:41:43.855Z,4.28
2017-07-01T11:44:12.056Z,4.87
2017-07-01T11:46:40.242Z,8.65
2017-07-01T11:49:08.473Z,5.72
2017-07-01T11:51:36.674Z,11.73
2017-07-01T11:54:04.839Z,5.30
2017-07-01T11:56:33.064Z,6.90
2017-07-01T11:59:01.244Z,6.28
2017-07-01T12:01:29.435Z,5.40
2017-07-01T12:03:57.663Z,6.32
2017-07-01T12:06:25.855Z,8.25
2017-07-01T12:08:54.045Z,6.03
2017-07-01T12:11:22.279Z,5.90
2017-07-01T12:13:50.452Z,9.57
2017-07-01T12:16:18.638Z,7.72
2017-07-01T12:18:46.868Z,6.40
2017-07-01T12:21:15.037Z,9.07
2017-07-01T12:23:43.247Z,7.03
2017-07-01T12:26:11.475Z,10.10
2017-07-01T12:28:40.447Z,7.00
2017-07-01T12:31:08.666Z,7.68
2017-07-01T12:33:36.880Z,7.07
2017-07-01T12:36:05.071Z,9.15
2017-07-01T12:38:33.277Z,8.45
2017-07-01T12:41:02.486Z,8.30
2017-07-01T12:43:30.682Z,8.15
2017-07-01T12:45:58.875Z,8.27
2017-07-01T12:48:27.118Z,8.15
2017-07-01T12:50:55.297Z,10.30
2017-07-01T12:53:23.487Z,8.90
2017-07-01T12:55:51.689Z,10.43
2017-07-01T12:58:19.871Z,8.30
2017-07-01T13:00:48.046Z,11.00
2017-07-01T13:03:16.285Z,7.60
2017-07-01T13:05:44.479Z,9.50
2017-07-01T13:08:12.649Z,9.32
2017-07-01T13:10:40.871Z,12.95
2017-07-01T13:13:09.071Z,9.23
2017-07-01T13:15:37.287Z,10.98
2017-07-01T13:18:05.527Z,15.98
2017-07-01T13:20:33.734Z,7.90
2017-07-01T13:23:01.941Z,8.77
2017-07-01T13:25:30.284Z,9.35
2017-07-01T13:27:58.454Z,9.07
2017-07-01T13:30:26.649Z,13.10
2017-07-01T13:32:54.884Z,13.23
2017-07-01T13:35:23.053Z,9.02
2017-07-01T13:37:51.250Z,9.55
2017-07-01T13:40:19.475Z,8.52
2017-07-01T13:42:48.431Z,9.50
2017-07-01T13:45:16.623Z,9.07
2017-07-01T13:47:44.855Z,10.85
2017-07-01T13:50:13.058Z,11.25
2017-07-01T13:52:41.278Z,10.27
2017-07-01T13:55:10.282Z,9.90
2017-07-01T13:57:38.495Z,10.70
2017-07-01T14:00:06.660Z,14.73
2017-07-01T14:02:34.877Z,13.30
2017-07-01T14:05:03.076Z,9.35
2017-07-01T14:07:32.036Z,10.93
2017-07-01T14:10:00.266Z,9.75
2017-07-01T14:12:28.443Z,9.98
2017-07-01T14:14:56.616Z,9.15
2017-07-01T14:17:25.444Z,14.30
2017-07-01T14:19:53.644Z,9.82
2017-07-01T14:22:22.624Z,13.32
2017-07-01T14:24:50.832Z,8.75
2017-07-01T14:27:19.941Z,12.18
2017-07-01T14:29:48.113Z,9.38
2017-07-01T14:32:16.331Z,12.57
2017-07-01T14:34:44.528Z,9.70
2017-07-01T14:37:12.732Z,10.15
2017-07-01T14:39:40.975Z,8.93
2017-07-01T14:42:09.206Z,11.25
2017-07-01T14:44:37.370Z,8.60
2017-07-01T14:47:05.631Z,9.68
2017-07-01T14:49:33.860Z,9.10
2017-07-01T14:52:02.045Z,8.77
2017-07-01T14:54:30.271Z,10.65
2017-07-01T14:56:58.455Z,11.12
2017-07-01T14:59:26.625Z,9.30
2017-07-01T15:01:54.863Z,10.80
2017-07-01T15:04:23.059Z,10.82
2017-07-01T15:06:52.025Z,9.52
2017-07-01T15:09:20.257Z,9.75
2017-07-01T15:11:48.475Z,9.40
2017-07-01T15:14:16.672Z,10.55
2017-07-01T15:16:45.655Z,9.77
2017-07-01T15:19:14.630Z,9.15
2017-07-01T15:21:42.821Z,9.13
2017-07-01T15:24:11.036Z,9.00
2017-07-01T15:26:39.229Z,8.70
2017-07-01T15:29:07.446Z,11.77
2017-07-01T15:31:36.419Z,8.65
2017-07-01T15:34:04.611Z,10.65
2017-07-01T15:36:32.801Z,10.50
2017-07-01T15:39:01.805Z,8.85
2017-07-01T15:41:30.005Z,11.10
2017-07-01T15:43:58.196Z,8.90
2017-07-01T15:46:26.427Z,11.70
2017-07-01T15:48:54.618Z,9.95
2017-07-01T15:51:22.785Z,10.60
2017-07-01T15:53:50.976Z,8.98
2017-07-01T15:56:19.186Z,11.35
2017-07-01T15:58:48.162Z,12.30
2017-07-01T16:01:48.930Z,11.15
2017-07-01T16:04:17.137Z,9.77
2017-07-01T16:06:45.335Z,12.48
2017-07-01T16:09:13.540Z,9.43
2017-07-01T16:11:41.727Z,8.40
2017-07-01T16:14:09.919Z,9.20
2017-07-01T16:16:38.920Z,9.10
2017-07-01T16:19:07.857Z,9.15
2017-07-01T16:21:36.047Z,10.02
2017-07-01T16:24:04.266Z,10.32
2017-07-01T16:26:33.242Z,11.68
2017-07-01T16:29:01.428Z,9.57
2017-07-01T16:31:30.426Z,9.10
2017-07-01T16:33:59.392Z,10.75
2017-07-01T16:36:27.625Z,10.32
2017-07-01T16:38:55.939Z,11.23
2017-07-01T16:41:24.138Z,10.85
2017-07-01T16:43:52.303Z,13.57
2017-07-01T16:46:20.578Z,12.30
2017-07-01T16:48:49.707Z,11.38
2017-07-01T16:51:18.674Z,15.90
2017-07-01T16:53:46.967Z,10.88
2017-07-01T16:56:15.966Z,12.68
2017-07-01T16:58:44.927Z,12.50
2017-07-01T17:01:13.161Z,13.75
2017-07-01T17:03:41.396Z,12.57
2017-07-01T17:06:10.400Z,9.48
2017-07-01T17:08:39.475Z,10.65
2017-07-01T17:11:07.676Z,11.43
2017-07-01T17:13:35.892Z,13.62
2017-07-01T17:16:04.870Z,13.25
2017-07-01T17:18:33.096Z,10.52
2017-07-01T17:21:01.305Z,11.02
2017-07-01T17:23:30.328Z,11.45
2017-07-01T17:25:58.521Z,17.10
2017-07-01T17:28:26.755Z,11.68
2017-07-01T17:30:54.995Z,10.98
2017-07-01T17:33:23.217Z,11.12
2017-07-01T17:35:51.434Z,12.70
2017-07-01T17:38:19.668Z,13.90
2017-07-01T17:40:47.858Z,13.80
2017-07-01T17:43:16.030Z,12.70
2017-07-01T17:45:44.296Z,12.30
2017-07-01T17:48:12.465Z,9.85
2017-07-01T17:50:41.426Z,10.77
2017-07-01T17:53:09.668Z,9.73
2017-07-01T17:55:37.854Z,14.60
2017-07-01T17:58:06.083Z,19.83
2017-07-01T18:00:35.242Z,69.47
2017-07-01T18:03:03.447Z,14.00
2017-07-01T18:05:31.667Z,13.02
2017-07-01T18:07:59.905Z,42.85
2017-07-01T18:10:28.121Z,43.35
2017-07-01T18:12:56.329Z,44.00
2017-07-01T18:15:24.554Z,70.37
2017-07-01T18:17:52.768Z,95.30
2017-07-01T18:20:20.997Z,15.85
2017-07-01T18:22:49.303Z,25.33
2017-07-01T18:25:17.511Z,23.23
2017-07-01T18:27:45.718Z,20.55
2017-07-01T18:30:13.970Z,13.60
2017-07-01T18:32:42.153Z,19.55
2017-07-01T18:35:10.354Z,19.62
2017-07-01T18:37:39.369Z,16.92
2017-07-01T18:40:07.579Z,29.05
2017-07-01T18:42:35.847Z,28.55
2017-07-01T18:45:04.128Z,31.05
2017-07-01T18:47:32.348Z,21.02
2017-07-01T18:50:01.316Z,20.58
2017-07-01T18:52:29.620Z,18.10
2017-07-01T18:54:57.820Z,17.73
2017-07-01T18:57:25.996Z,19.50
2017-07-01T18:59:54.233Z,21.05
2017-07-01T19:02:22.462Z,26.23
2017-07-01T19:04:50.667Z,21.25
2017-07-01T19:07:18.912Z,23.67
2017-07-01T19:09:47.125Z,17.25
2017-07-01T19:12:15.361Z,17.12
2017-07-01T19:14:43.576Z,20.37
2017-07-01T19:17:11.783Z,18.55
2017-07-01T19:19:41.115Z,20.00
2017-07-01T19:22:09.385Z,22.70
2017-07-01T19:24:37.586Z,23.45
2017-07-01T19:27:05.815Z,16.92
2017-07-01T19:29:34.831Z,18.95
2017-07-01T19:32:03.028Z,21.40
2017-07-01T19:34:31.231Z,20.80
2017-07-01T19:36:59.455Z,21.98
2017-07-01T19:39:27.664Z,19.65
2017-07-01T19:41:55.883Z,18.48
2017-07-01T19:44:25.391Z,24.45
2017-07-01T19:46:54.358Z,20.27
2017-07-01T19:49:22.560Z,20.62
2017-07-01T19:51:51.551Z,20.25
2017-07-01T19:54:20.522Z,21.77
2017-07-01T19:56:48.720Z,18.60
2017-07-01T19:59:17.725Z,25.45
2017-07-01T20:01:46.685Z,22.00
2017-07-01T20:04:14.861Z,20.60
2017-07-01T20:06:43.100Z,26.20
2017-07-01T20:09:11.327Z,19.85
2017-07-01T20:11:39.527Z,24.83
2017-07-01T20:14:07.775Z,20.52
2017-07-01T20:16:36.011Z,29.52
2017-07-01T20:19:04.345Z,25.98
2017-07-01T20:21:32.608Z,25.52
2017-07-01T20:24:00.835Z,27.40
2017-07-01T20:26:29.028Z,25.85
2017-07-01T20:28:57.270Z,29.77
2017-07-01T20:31:25.463Z,32.45
2017-07-01T20:33:53.924Z,28.05
2017-07-01T20:36:22.188Z,28.38
2017-07-01T20:38:51.159Z,28.83
2017-07-01T20:41:19.355Z,31.65
2017-07-01T20:43:47.622Z,26.35
2017-07-01T20:46:16.626Z,31.42
2017-07-01T20:48:45.588Z,28.87
2017-07-01T20:51:13.805Z,26.95
2017-07-01T20:53:42.015Z,37.08
2017-07-01T20:56:10.187Z,36.20
2017-07-01T20:58:38.426Z,34.00
2017-07-01T21:01:06.639Z,25.73
2017-07-01T21:03:34.831Z,36.90
2017-07-01T21:06:03.080Z,35.55
2017-07-01T21:08:31.288Z,38.80
2017-07-01T21:10:59.514Z,38.88
2017-07-01T21:13:27.754Z,29.25
2017-07-01T21:15:55.971Z,28.90
2017-07-01T21:18:24.186Z,31.62
2017-07-01T21:20:52.431Z,24.55
2017-07-01T21:23:20.606Z,30.67
2017-07-01T21:25:48.884Z,33.13
2017-07-01T21:28:17.112Z,34.67
2017-07-01T21:30:46.069Z,34.63
2017-07-01T21:33:14.279Z,33.03
2017-07-01T21:35:42.507Z,26.30
2017-07-01T21:38:10.686Z,34.38
2017-07-01T21:40:38.861Z,29.80
2017-07-01T21:43:07.110Z,26.37
2017-07-01T21:45:35.318Z,33.17
2017-07-01T21:48:03.491Z,23.38
2017-07-01T21:50:31.719Z,29.15
2017-07-01T21:53:00.698Z,28.15
2017-07-01T21:55:28.901Z,22.42
2017-07-01T21:57:57.999Z,18.12
2017-07-01T22:00:26.946Z,21.77
2017-07-01T22:02:55.143Z,30.60
2017-07-01T22:05:23.380Z,27.58
2017-07-01T22:07:51.570Z,34.25
2017-07-01T22:10:19.775Z,29.08
2017-07-01T22:12:48.017Z,26.77
2017-07-01T22:15:16.219Z,22.00
2017-07-01T22:17:44.445Z,24.25
2017-07-01T22:20:12.657Z,30.05
2017-07-01T22:22:40.863Z,26.65
2017-07-01T22:25:16.852Z,35.17
2017-07-01T22:27:45.072Z,27.45
2017-07-01T22:30:13.289Z,26.62
2017-07-01T22:32:42.269Z,26.12
2017-07-01T22:35:11.231Z,24.67
2017-07-01T22:37:39.427Z,20.25
2017-07-01T22:40:07.770Z,27.95
2017-07-01T22:42:35.989Z,23.75
2017-07-01T22:45:04.947Z,25.35
2017-07-01T22:47:33.185Z,19.90
2017-07-01T22:50:02.239Z,26.40
2017-07-01T22:52:30.436Z,24.50
2017-07-01T22:54:59.427Z,22.10
2017-07-01T22:57:28.390Z,28.30
2017-07-01T22:59:56.678Z,29.08
2017-07-01T23:02:24.921Z,16.25
2017-07-01T23:04:53.171Z,21.80
2017-07-01T23:07:21.375Z,27.40
2017-07-01T23:09:49.657Z,36.85
2017-07-01T23:12:17.886Z,29.15
2017-07-01T23:14:46.196Z,29.58
2017-07-01T23:17:14.446Z,26.08
2017-07-01T23:19:42.644Z,20.85
2017-07-01T23:22:10.854Z,22.90
2017-07-01T23:24:39.079Z,23.52
2017-07-01T23:27:07.291Z,25.60
2017-07-01T23:29:35.508Z,30.90
2017-07-01T23:32:04.499Z,26.90
2017-07-01T23:34:33.473Z,31.67
2017-07-01T23:37:01.672Z,30.60
2017-07-01T23:39:30.673Z,22.35
2017-07-01T23:41:59.627Z,17.30
2017-07-01T23:44:27.832Z,19.80
2017-07-01T23:46:56.810Z,22.95
2017-07-01T23:49:24.984Z,27.98
2017-07-01T23:51:53.198Z,28.67
2017-07-01T23:54:21.409Z,21.20
2017-07-01T23:56:49.607Z,21.67
2017-07-01T23:59:17.813Z,19.95
